sensor_id;sensor_type;location;lat;lon;timestamp;temperature;humidity
60242;SHT30;46103;52.076;113.488;2022-12-20T00:01:33;-15.33;60.01
60242;SHT30;46103;52.076;113.488;2022-12-20T00:04:42;-15.34;60.07
60242;SHT30;46103;52.076;113.488;2022-12-20T00:07:53;-15.33;59.92
60242;SHT30;46103;52.076;113.488;2022-12-20T00:11:03;-15.36;60.09
60242;SHT30;46103;52.076;113.488;2022-12-20T00:14:14;-15.40;60.10
60242;SHT30;46103;52.076;113.488;2022-12-20T00:17:23;-15.43;60.15
60242;SHT30;46103;52.076;113.488;2022-12-20T00:20:34;-15.47;60.24
60242;SHT30;46103;52.076;113.488;2022-12-20T00:23:44;-15.48;60.51
60242;SHT30;46103;52.076;113.488;2022-12-20T00:26:54;-15.45;60.47
60242;SHT30;46103;52.076;113.488;2022-12-20T00:30:04;-15.41;60.38
60242;SHT30;46103;52.076;113.488;2022-12-20T00:33:15;-15.40;60.29
60242;SHT30;46103;52.076;113.488;2022-12-20T00:36:26;-15.41;60.32
60242;SHT30;46103;52.076;113.488;2022-12-20T00:39:38;-15.38;60.14
60242;SHT30;46103;52.076;113.488;2022-12-20T00:42:49;-15.38;60.15
60242;SHT30;46103;52.076;113.488;2022-12-20T00:46:00;-15.40;60.25
60242;SHT30;46103;52.076;113.488;2022-12-20T00:49:10;-15.40;60.19
60242;SHT30;46103;52.076;113.488;2022-12-20T00:52:20;-15.41;60.17
60242;SHT30;46103;52.076;113.488;2022-12-20T00:55:31;-15.40;60.29
60242;SHT30;46103;52.076;113.488;2022-12-20T00:58:42;-15.44;60.45
60242;SHT30;46103;52.076;113.488;2022-12-20T01:01:54;-15.45;60.56
60242;SHT30;46103;52.076;113.488;2022-12-20T01:05:05;-15.41;60.49
60242;SHT30;46103;52.076;113.488;2022-12-20T01:08:17;-15.36;60.49
60242;SHT30;46103;52.076;113.488;2022-12-20T01:11:31;-15.33;60.36
60242;SHT30;46103;52.076;113.488;2022-12-20T01:14:43;-15.27;60.14
60242;SHT30;46103;52.076;113.488;2022-12-20T01:17:53;-15.22;59.97
60242;SHT30;46103;52.076;113.488;2022-12-20T01:21:02;-15.12;59.64
60242;SHT30;46103;52.076;113.488;2022-12-20T01:24:17;-15.05;59.44
60242;SHT30;46103;52.076;113.488;2022-12-20T01:27:28;-14.99;59.32
60242;SHT30;46103;52.076;113.488;2022-12-20T01:30:40;-14.98;59.19
60242;SHT30;46103;52.076;113.488;2022-12-20T01:33:50;-14.96;59.26
60242;SHT30;46103;52.076;113.488;2022-12-20T01:36:55;-14.89;59.24
60242;SHT30;46103;52.076;113.488;2022-12-20T01:40:00;-14.88;59.16
60242;SHT30;46103;52.076;113.488;2022-12-20T01:43:04;-14.84;59.12
60242;SHT30;46103;52.076;113.488;2022-12-20T01:46:08;-14.79;59.01
60242;SHT30;46103;52.076;113.488;2022-12-20T01:52:36;-14.60;58.64
60242;SHT30;46103;52.076;113.488;2022-12-20T01:56:03;-14.46;57.95
60242;SHT30;46103;52.076;113.488;2022-12-20T02:04:18;-14.03;56.72
60242;SHT30;46103;52.076;113.488;2022-12-20T02:14:31;-13.64;55.85
60242;SHT30;46103;52.076;113.488;2022-12-20T02:28:08;-13.06;53.99
60242;SHT30;46103;52.076;113.488;2022-12-20T02:35:31;-12.94;53.28
60242;SHT30;46103;52.076;113.488;2022-12-20T02:40:12;-13.04;53.56
60242;SHT30;46103;52.076;113.488;2022-12-20T02:45:05;-12.98;53.48
60242;SHT30;46103;52.076;113.488;2022-12-20T02:49:17;-13.08;53.63
60242;SHT30;46103;52.076;113.488;2022-12-20T02:53:35;-13.01;53.82
60242;SHT30;46103;52.076;113.488;2022-12-20T03:01:44;-13.12;54.24
60242;SHT30;46103;52.076;113.488;2022-12-20T03:05:38;-13.11;54.26
60242;SHT30;46103;52.076;113.488;2022-12-20T03:09:55;-13.04;54.55
60242;SHT30;46103;52.076;113.488;2022-12-20T03:13:34;-12.92;54.26
60242;SHT30;46103;52.076;113.488;2022-12-20T03:16:53;-12.85;54.15
60242;SHT30;46103;52.076;113.488;2022-12-20T03:20:09;-12.66;54.23
60242;SHT30;46103;52.076;113.488;2022-12-20T03:23:35;-12.50;53.67
60242;SHT30;46103;52.076;113.488;2022-12-20T03:26:55;-12.42;53.45
60242;SHT30;46103;52.076;113.488;2022-12-20T03:30:14;-12.39;53.18
60242;SHT30;46103;52.076;113.488;2022-12-20T03:33:53;-12.46;53.59
60242;SHT30;46103;52.076;113.488;2022-12-20T03:37:01;-12.57;53.60
60242;SHT30;46103;52.076;113.488;2022-12-20T03:40:18;-12.56;53.44
60242;SHT30;46103;52.076;113.488;2022-12-20T03:43:50;-12.46;53.50
60242;SHT30;46103;52.076;113.488;2022-12-20T03:47:05;-12.45;53.44
60242;SHT30;46103;52.076;113.488;2022-12-20T03:54:03;-12.45;53.14
60242;SHT30;46103;52.076;113.488;2022-12-20T03:57:42;-12.57;53.43
60242;SHT30;46103;52.076;113.488;2022-12-20T04:01:26;-12.56;53.44
60242;SHT30;46103;52.076;113.488;2022-12-20T04:04:53;-12.50;53.65
60242;SHT30;46103;52.076;113.488;2022-12-20T04:08:09;-12.36;53.09
60242;SHT30;46103;52.076;113.488;2022-12-20T04:11:47;-12.19;52.79
60242;SHT30;46103;52.076;113.488;2022-12-20T04:14:56;-11.92;52.42
60242;SHT30;46103;52.076;113.488;2022-12-20T04:18:12;-11.70;51.39
60242;SHT30;46103;52.076;113.488;2022-12-20T04:22:07;-11.61;51.42
60242;SHT30;46103;52.076;113.488;2022-12-20T04:25:27;-11.70;50.99
60242;SHT30;46103;52.076;113.488;2022-12-20T04:28:32;-11.81;51.14
60242;SHT30;46103;52.076;113.488;2022-12-20T04:31:45;-11.74;51.19
60242;SHT30;46103;52.076;113.488;2022-12-20T04:35:10;-11.75;51.44
60242;SHT30;46103;52.076;113.488;2022-12-20T04:38:35;-11.80;51.28
60242;SHT30;46103;52.076;113.488;2022-12-20T04:42:05;-11.75;51.63
60242;SHT30;46103;52.076;113.488;2022-12-20T04:45:31;-11.78;51.80
60242;SHT30;46103;52.076;113.488;2022-12-20T04:48:41;-11.71;51.72
60242;SHT30;46103;52.076;113.488;2022-12-20T04:52:34;-11.74;51.37
60242;SHT30;46103;52.076;113.488;2022-12-20T04:56:36;-11.75;51.26
60242;SHT30;46103;52.076;113.488;2022-12-20T04:59:49;-11.66;51.08
60242;SHT30;46103;52.076;113.488;2022-12-20T05:03:02;-11.50;50.92
60242;SHT30;46103;52.076;113.488;2022-12-20T05:06:32;-11.28;49.86
60242;SHT30;46103;52.076;113.488;2022-12-20T05:09:55;-11.00;49.57
60242;SHT30;46103;52.076;113.488;2022-12-20T05:13:26;-10.64;48.54
60242;SHT30;46103;52.076;113.488;2022-12-20T05:16:36;-10.29;46.73
60242;SHT30;46103;52.076;113.488;2022-12-20T05:19:47;-9.95;46.28
60242;SHT30;46103;52.076;113.488;2022-12-20T05:23:02;-9.59;45.19
60242;SHT30;46103;52.076;113.488;2022-12-20T05:26:50;-9.31;43.54
60242;SHT30;46103;52.076;113.488;2022-12-20T05:30:05;-9.33;43.62
60242;SHT30;46103;52.076;113.488;2022-12-20T05:33:10;-9.28;43.25
60242;SHT30;46103;52.076;113.488;2022-12-20T05:36:20;-9.40;42.95
60242;SHT30;46103;52.076;113.488;2022-12-20T05:39:28;-9.40;42.80
60242;SHT30;46103;52.076;113.488;2022-12-20T05:42:37;-9.47;43.49
60242;SHT30;46103;52.076;113.488;2022-12-20T05:45:51;-9.64;42.87
60242;SHT30;46103;52.076;113.488;2022-12-20T05:49:11;-10.11;43.64
60242;SHT30;46103;52.076;113.488;2022-12-20T05:52:25;-10.28;45.33
60242;SHT30;46103;52.076;113.488;2022-12-20T05:55:34;-10.53;45.42
60242;SHT30;46103;52.076;113.488;2022-12-20T05:58:46;-10.61;46.28
60242;SHT30;46103;52.076;113.488;2022-12-20T06:02:09;-10.56;46.87
60242;SHT30;46103;52.076;113.488;2022-12-20T06:05:21;-10.63;46.18
60242;SHT30;46103;52.076;113.488;2022-12-20T06:08:34;-10.74;45.98
60242;SHT30;46103;52.076;113.488;2022-12-20T06:12:14;-10.91;46.67
60242;SHT30;46103;52.076;113.488;2022-12-20T06:15:31;-11.01;47.65
60242;SHT30;46103;52.076;113.488;2022-12-20T06:18:56;-10.91;47.71
60242;SHT30;46103;52.076;113.488;2022-12-20T06:22:07;-10.92;47.39
60242;SHT30;46103;52.076;113.488;2022-12-20T06:25:32;-10.87;47.89
60242;SHT30;46103;52.076;113.488;2022-12-20T06:28:41;-10.88;47.85
60242;SHT30;46103;52.076;113.488;2022-12-20T06:32:11;-10.84;47.76
60242;SHT30;46103;52.076;113.488;2022-12-20T06:35:40;-10.74;47.71
60242;SHT30;46103;52.076;113.488;2022-12-20T06:38:48;-10.70;47.66
60242;SHT30;46103;52.076;113.488;2022-12-20T06:41:52;-10.80;48.15
60242;SHT30;46103;52.076;113.488;2022-12-20T06:44:56;-10.94;49.59
60242;SHT30;46103;52.076;113.488;2022-12-20T06:48:04;-11.02;51.35
60242;SHT30;46103;52.076;113.488;2022-12-20T06:51:09;-11.15;52.36
60242;SHT30;46103;52.076;113.488;2022-12-20T06:54:16;-11.18;52.94
60242;SHT30;46103;52.076;113.488;2022-12-20T06:57:24;-11.29;53.38
60242;SHT30;46103;52.076;113.488;2022-12-20T07:00:31;-11.35;53.34
60242;SHT30;46103;52.076;113.488;2022-12-20T07:03:45;-11.40;53.76
60242;SHT30;46103;52.076;113.488;2022-12-20T07:07:02;-11.42;53.44
60242;SHT30;46103;52.076;113.488;2022-12-20T07:10:12;-11.64;53.81
60242;SHT30;46103;52.076;113.488;2022-12-20T07:13:30;-11.69;53.54
60242;SHT30;46103;52.076;113.488;2022-12-20T07:16:56;-11.82;53.44
60242;SHT30;46103;52.076;113.488;2022-12-20T07:20:30;-11.92;52.54
60242;SHT30;46103;52.076;113.488;2022-12-20T07:23:40;-11.98;52.60
60242;SHT30;46103;52.076;113.488;2022-12-20T07:26:47;-12.03;52.04
60242;SHT30;46103;52.076;113.488;2022-12-20T07:30:07;-12.08;51.69
60242;SHT30;46103;52.076;113.488;2022-12-20T07:33:19;-12.15;51.58
60242;SHT30;46103;52.076;113.488;2022-12-20T07:41:44;-12.28;51.94
60242;SHT30;46103;52.076;113.488;2022-12-20T07:44:58;-12.36;52.14
60242;SHT30;46103;52.076;113.488;2022-12-20T07:48:23;-12.43;52.27
60242;SHT30;46103;52.076;113.488;2022-12-20T07:51:49;-12.47;52.42
60242;SHT30;46103;52.076;113.488;2022-12-20T07:55:38;-12.57;52.85
60242;SHT30;46103;52.076;113.488;2022-12-20T08:00:15;-12.64;52.89
60242;SHT30;46103;52.076;113.488;2022-12-20T08:05:05;-12.73;52.84
60242;SHT30;46103;52.076;113.488;2022-12-20T08:09:09;-12.75;52.68
60242;SHT30;46103;52.076;113.488;2022-12-20T08:12:39;-12.78;52.88
60242;SHT30;46103;52.076;113.488;2022-12-20T08:16:27;-12.87;53.21
60242;SHT30;46103;52.076;113.488;2022-12-20T08:20:26;-12.89;53.48
60242;SHT30;46103;52.076;113.488;2022-12-20T08:23:39;-12.94;53.76
60242;SHT30;46103;52.076;113.488;2022-12-20T08:26:55;-13.01;53.82
60242;SHT30;46103;52.076;113.488;2022-12-20T08:30:24;-13.06;53.98
60242;SHT30;46103;52.076;113.488;2022-12-20T08:33:34;-13.08;54.13
60242;SHT30;46103;52.076;113.488;2022-12-20T08:37:03;-13.22;54.53
60242;SHT30;46103;52.076;113.488;2022-12-20T08:40:22;-13.20;54.84
60242;SHT30;46103;52.076;113.488;2022-12-20T08:43:31;-13.23;54.90
60242;SHT30;46103;52.076;113.488;2022-12-20T08:46:39;-13.18;54.84
60242;SHT30;46103;52.076;113.488;2022-12-20T08:49:51;-13.13;54.57
60242;SHT30;46103;52.076;113.488;2022-12-20T08:53:02;-13.11;54.63
60242;SHT30;46103;52.076;113.488;2022-12-20T08:56:14;-13.06;54.74
60242;SHT30;46103;52.076;113.488;2022-12-20T08:59:36;-13.06;54.81
60242;SHT30;46103;52.076;113.488;2022-12-20T09:02:47;-13.12;54.92
60242;SHT30;46103;52.076;113.488;2022-12-20T09:05:53;-13.16;55.14
60242;SHT30;46103;52.076;113.488;2022-12-20T09:09:04;-13.15;55.28
60242;SHT30;46103;52.076;113.488;2022-12-20T09:12:15;-13.19;55.35
60242;SHT30;46103;52.076;113.488;2022-12-20T09:15:23;-13.23;55.47
60242;SHT30;46103;52.076;113.488;2022-12-20T09:18:33;-13.30;55.44
60242;SHT30;46103;52.076;113.488;2022-12-20T09:21:43;-13.36;55.81
60242;SHT30;46103;52.076;113.488;2022-12-20T09:24:53;-13.36;55.86
60242;SHT30;46103;52.076;113.488;2022-12-20T09:28:05;-13.50;56.23
60242;SHT30;46103;52.076;113.488;2022-12-20T09:31:13;-13.46;56.21
60242;SHT30;46103;52.076;113.488;2022-12-20T09:34:43;-13.46;56.95
60242;SHT30;46103;52.076;113.488;2022-12-20T09:37:56;-13.48;57.16
60242;SHT30;46103;52.076;113.488;2022-12-20T09:41:14;-13.50;57.26
60242;SHT30;46103;52.076;113.488;2022-12-20T09:44:39;-13.50;57.65
60242;SHT30;46103;52.076;113.488;2022-12-20T09:47:49;-13.54;57.32
60242;SHT30;46103;52.076;113.488;2022-12-20T10:01:13;-13.57;57.37
60242;SHT30;46103;52.076;113.488;2022-12-20T10:04:42;-13.61;58.83
60242;SHT30;46103;52.076;113.488;2022-12-20T10:08:15;-13.68;59.22
60242;SHT30;46103;52.076;113.488;2022-12-20T10:24:18;-13.78;60.52
60242;SHT30;46103;52.076;113.488;2022-12-20T10:28:16;-13.93;60.95
60242;SHT30;46103;52.076;113.488;2022-12-20T10:32:22;-14.02;60.44
60242;SHT30;46103;52.076;113.488;2022-12-20T10:41:02;-14.26;62.01
60242;SHT30;46103;52.076;113.488;2022-12-20T10:44:29;-14.26;62.51
60242;SHT30;46103;52.076;113.488;2022-12-20T10:48:32;-14.30;62.97
60242;SHT30;46103;52.076;113.488;2022-12-20T10:57:28;-14.29;64.01
60242;SHT30;46103;52.076;113.488;2022-12-20T11:06:41;-14.33;64.84
60242;SHT30;46103;52.076;113.488;2022-12-20T11:10:47;-14.43;64.48
60242;SHT30;46103;52.076;113.488;2022-12-20T11:15:32;-14.32;65.38
60242;SHT30;46103;52.076;113.488;2022-12-20T11:20:10;-14.29;64.76
60242;SHT30;46103;52.076;113.488;2022-12-20T11:59:01;-14.56;63.70
60242;SHT30;46103;52.076;113.488;2022-12-20T12:08:23;-14.78;63.55
60242;SHT30;46103;52.076;113.488;2022-12-20T12:25:14;-14.93;63.52
60242;SHT30;46103;52.076;113.488;2022-12-20T12:30:45;-15.00;63.41
60242;SHT30;46103;52.076;113.488;2022-12-20T12:48:11;-15.16;62.29
60242;SHT30;46103;52.076;113.488;2022-12-20T12:57:55;-15.38;63.20
60242;SHT30;46103;52.076;113.488;2022-12-20T13:03:14;-15.43;62.11
60242;SHT30;46103;52.076;113.488;2022-12-20T13:19:58;-15.89;61.71
60242;SHT30;46103;52.076;113.488;2022-12-20T13:29:25;-16.09;64.38
60242;SHT30;46103;52.076;113.488;2022-12-20T13:34:34;-16.12;63.48
60242;SHT30;46103;52.076;113.488;2022-12-20T13:44:01;-16.16;62.66
60242;SHT30;46103;52.076;113.488;2022-12-20T13:53:32;-15.96;64.32
60242;SHT30;46103;52.076;113.488;2022-12-20T13:57:38;-15.82;63.93
60242;SHT30;46103;52.076;113.488;2022-12-20T14:02:00;-15.78;64.94
60242;SHT30;46103;52.076;113.488;2022-12-20T14:06:57;-15.66;64.61
60242;SHT30;46103;52.076;113.488;2022-12-20T14:18:49;-15.78;64.54
60242;SHT30;46103;52.076;113.488;2022-12-20T14:45:18;-15.59;64.59
60242;SHT30;46103;52.076;113.488;2022-12-20T15:00:53;-16.13;58.68
60242;SHT30;46103;52.076;113.488;2022-12-20T15:28:35;-16.99;61.22
60242;SHT30;46103;52.076;113.488;2022-12-20T15:32:48;-16.99;58.21
60242;SHT30;46103;52.076;113.488;2022-12-20T15:36:46;-16.97;57.51
60242;SHT30;46103;52.076;113.488;2022-12-20T15:44:46;-17.14;57.01
60242;SHT30;46103;52.076;113.488;2022-12-20T15:49:20;-17.13;57.06
60242;SHT30;46103;52.076;113.488;2022-12-20T15:53:32;-17.24;57.38
60242;SHT30;46103;52.076;113.488;2022-12-20T15:57:31;-17.32;57.44
60242;SHT30;46103;52.076;113.488;2022-12-20T16:01:18;-17.32;57.14
60242;SHT30;46103;52.076;113.488;2022-12-20T16:05:08;-17.37;57.42
60242;SHT30;46103;52.076;113.488;2022-12-20T16:09:28;-17.54;60.10
60242;SHT30;46103;52.076;113.488;2022-12-20T16:13:31;-17.69;61.40
60242;SHT30;46103;52.076;113.488;2022-12-20T16:17:14;-17.70;62.13
60242;SHT30;46103;52.076;113.488;2022-12-20T16:21:21;-17.67;60.15
60242;SHT30;46103;52.076;113.488;2022-12-20T16:25:33;-17.67;58.48
60242;SHT30;46103;52.076;113.488;2022-12-20T16:30:04;-18.01;63.17
60242;SHT30;46103;52.076;113.488;2022-12-20T16:34:18;-17.98;63.08
60242;SHT30;46103;52.076;113.488;2022-12-20T16:38:40;-17.96;61.43
60242;SHT30;46103;52.076;113.488;2022-12-20T16:42:52;-18.01;61.35
60242;SHT30;46103;52.076;113.488;2022-12-20T16:46:02;-18.00;61.52
60242;SHT30;46103;52.076;113.488;2022-12-20T16:49:34;-17.87;61.63
60242;SHT30;46103;52.076;113.488;2022-12-20T16:52:40;-17.73;60.98
60242;SHT30;46103;52.076;113.488;2022-12-20T16:56:41;-17.54;59.34
60242;SHT30;46103;52.076;113.488;2022-12-20T17:01:12;-17.45;59.22
60242;SHT30;46103;52.076;113.488;2022-12-20T17:04:49;-17.44;59.18
60242;SHT30;46103;52.076;113.488;2022-12-20T17:09:19;-17.38;57.95
60242;SHT30;46103;52.076;113.488;2022-12-20T17:13:11;-17.37;56.43
60242;SHT30;46103;52.076;113.488;2022-12-20T17:16:30;-17.41;55.67
60242;SHT30;46103;52.076;113.488;2022-12-20T17:20:14;-17.44;55.63
60242;SHT30;46103;52.076;113.488;2022-12-20T17:23:49;-17.61;55.95
60242;SHT30;46103;52.076;113.488;2022-12-20T17:27:10;-17.70;55.32
60242;SHT30;46103;52.076;113.488;2022-12-20T17:31:00;-17.80;55.56
60242;SHT30;46103;52.076;113.488;2022-12-20T17:34:30;-17.90;54.87
60242;SHT30;46103;52.076;113.488;2022-12-20T17:38:11;-18.00;54.71
60242;SHT30;46103;52.076;113.488;2022-12-20T17:41:51;-18.11;55.17
60242;SHT30;46103;52.076;113.488;2022-12-20T17:45:32;-18.22;55.79
60242;SHT30;46103;52.076;113.488;2022-12-20T17:48:58;-18.29;56.04
60242;SHT30;46103;52.076;113.488;2022-12-20T17:52:08;-18.41;56.00
60242;SHT30;46103;52.076;113.488;2022-12-20T17:55:34;-18.63;56.99
60242;SHT30;46103;52.076;113.488;2022-12-20T17:59:15;-18.83;57.40
60242;SHT30;46103;52.076;113.488;2022-12-20T18:02:58;-18.93;57.66
60242;SHT30;46103;52.076;113.488;2022-12-20T18:06:59;-19.05;59.21
60242;SHT30;46103;52.076;113.488;2022-12-20T18:10:50;-19.07;59.97
60242;SHT30;46103;52.076;113.488;2022-12-20T18:14:23;-19.11;59.48
60242;SHT30;46103;52.076;113.488;2022-12-20T18:17:51;-19.18;60.66
60242;SHT30;46103;52.076;113.488;2022-12-20T18:25:04;-19.21;61.00
